Time;durP1;ratioP1;P1;durP2;ratioP2;P2;SDS_P1;SDS_P2;PMS_P1;PMS_P2;Temp;Humidity;BMP_temperature;BMP_pressure;BME280_temperature;BME280_humidity;BME280_pressure;Samples;Min_cycle;Max_cycle;Signal;HPM_P1;HPM_P2
2021/12/24 00:00:15;;;;;;;;;;;;;;;;;;1014293;29;1219;-25
2021/12/24 00:00:46;;;;;;;;;;;;;;;;;;1013899;29;1722;-25
2021/12/24 00:01:18;;;;;;;;;;;;;;;;;;1012829;29;1985;-25
2021/12/24 00:01:49;;;;;;;;;;;;;;;;;;1012863;29;1210;-25
2021/12/24 00:02:19;;;;;;;;;;;;;;;;;;1013972;29;1105;-25
2021/12/24 00:02:53;;;;;;;;;;;;;;;;;;1014010;29;1081;-24
2021/12/24 00:03:23;;;;;;;;;;;;;;;;;;1013526;29;994;-25
2021/12/24 00:03:54;;;;;;;;;;;;;;;;;;1012365;29;1116;-25
2021/12/24 00:04:24;;;;;;;;;;;;;;;;;;1013080;29;1152;-25
2021/12/24 00:04:55;;;;;;;;;;;;;;;;;;1013642;29;1188;-25
2021/12/24 00:05:25;;;;;;;;;;;;;;;;;;1014113;29;1125;-25
2021/12/24 00:05:56;;;;;;;;;;;;;;;;;;1012643;29;1148;-26
2021/12/24 00:06:26;;;;;;;;;;;;;;;;;;1013050;29;1187;-25
2021/12/24 00:06:56;;;;;;;;;;;;;;;;;;1013991;29;1251;-25
2021/12/24 00:07:27;;;;;;;;;;;;;;;;;;1014192;29;1093;-25
2021/12/24 00:07:57;;;;;;;;;;;;;;;;;;1012650;29;1329;-25
2021/12/24 00:08:28;;;;;;;;;;;;;;;;;;1012963;29;1411;-25
2021/12/24 00:08:59;;;;;;;;;;;;;;;;;;1013909;29;1207;-25
2021/12/24 00:09:33;;;;;;;;;;;;;;;;;;1014066;29;1369;-25
2021/12/24 00:10:04;;;;;;;;;;;;;;;;;;1013617;29;1223;-25
2021/12/24 00:10:35;;;;;;;;;;;;;;;;;;1012949;29;1156;-25
2021/12/24 00:11:06;;;;;;;;;;;;;;;;;;1008707;29;1203;-25
2021/12/24 00:11:37;;;;;;;;;;;;;;;;;;1009842;29;1704;-25
2021/12/24 00:12:14;;;;;;;;;;;;;;;;;;1009824;29;1228;-25
2021/12/24 00:12:53;;;;;;;;;;;;;;;;;;1010696;29;1239;-25
2021/12/24 00:13:23;;;;;;;;;;;;;;;;;;1011780;29;1050;-25
2021/12/24 00:13:54;;;;;;;;;;;;;;;;;;1012302;29;1101;-25
2021/12/24 00:14:26;;;;;;;;;;;;;;;;;;1013197;29;1144;-25
2021/12/24 00:15:02;;;;;;;;;;;;;;;;;;1014112;29;1259;-25
2021/12/24 00:16:23;;;;;;;;;;;;;;;;;;1013954;29;1120;-25
2021/12/24 00:16:57;;;;;;;;;;;;;;;;;;1013898;29;1188;-25
2021/12/24 00:17:31;;;;;;;;;;;;;;;;;;1014284;29;1172;-25
2021/12/24 00:18:10;;;;;;;;;;;;;;;;;;1013337;29;1064;-25
2021/12/24 00:18:49;;;;;;;;;;;;;;;;;;1011644;29;1112;-25
2021/12/24 00:19:37;;;;;;;;;;;;;;;;;;1013195;29;1124;-25
2021/12/24 00:22:20;;;;;;;;;;;;;;;;;;1006022;29;1149;-25
2021/12/24 00:23:26;;;;;;;;;;;;;;;;;;1015256;29;1448;-25
2021/12/24 00:35:29;;;;;;;;;;;;;;;;;;1015159;29;812;-25
2021/12/24 00:35:59;;;;;;;;;;;;;;;;;;1011158;29;837;-29
2021/12/24 00:36:29;;;;;;;;;;;;;;;;;;1011216;29;816;-25
2021/12/24 00:37:00;;;;;;;;;;;;;;;;;;1011184;29;861;-25
2021/12/24 00:37:30;;;;;;;;;;;;;;;;;;1007326;29;1139;-25
2021/12/24 00:38:03;;;;;;;;;;;;;;;;;;1011091;29;959;-25
2021/12/24 00:38:34;;;;;;;;;;;;;;;;;;1007172;29;1232;-25
2021/12/24 00:39:04;;;;;;;;;;;;;;;;;;1007602;29;1426;-25
2021/12/24 00:39:40;;;;;;;;;;;;;;;;;;1011092;29;939;-25
2021/12/24 00:40:17;;;;;;;;;;;;;;;;;;1011887;29;1034;-25
2021/12/24 00:40:47;;;;;;;;;;;;;;;;;;1015325;29;951;-25
2021/12/24 00:41:18;;;;;;;;;;;;;;;;;;1015210;29;1910;-25
2021/12/24 00:41:48;;;;;;;;;;;;;;;;;;1015394;29;915;-25
2021/12/24 00:42:18;;;;;;;;;;;;;;;;;;1015371;29;888;-25
2021/12/24 00:42:53;;;;;;;;;;;;;;;;;;1015463;29;765;-25
2021/12/24 00:43:24;;;;;;;;;;;;;;;;;;1015287;29;963;-25
2021/12/24 00:43:54;;;;;;;;;;;;;;;;;;1015418;29;943;-25
2021/12/24 00:44:25;;;;;;;;;;;;;;;;;;1011117;29;884;-25
2021/12/24 00:44:55;;;;;;;;;;;;;;;;;;1011196;29;769;-24
2021/12/24 00:45:27;;;;;;;;;;;;;;;;;;1011180;29;891;-25
2021/12/24 00:45:57;;;;;;;;;;;;;;;;;;1011252;29;923;-24
2021/12/24 00:46:29;;;;;;;;;;;;;;;;;;1015364;29;872;-25
2021/12/24 00:47:01;;;;;;;;;;;;;;;;;;1011140;29;907;-25
2021/12/24 00:47:31;;;;;;;;;;;;;;;;;;1011091;29;820;-25
2021/12/24 00:48:03;;;;;;;;;;;;;;;;;;1011044;29;1395;-25
2021/12/24 00:48:33;;;;;;;;;;;;;;;;;;1011093;29;994;-25
2021/12/24 00:49:03;;;;;;;;;;;;;;;;;;1011143;29;927;-24
2021/12/24 00:49:34;;;;;;;;;;;;;;;;;;1011185;29;927;-25
2021/12/24 00:50:08;;;;;;;;;;;;;;;;;;1011044;29;935;-24
2021/12/24 00:52:20;;;;;;;;;;;;;;;;;;1003184;29;919;-25
2021/12/24 00:53:02;;;;;;;;;;;;;;;;;;1015317;29;880;-25
2021/12/24 00:55:09;;;;;;;;;;;;;;;;;;1007366;29;919;-25
2021/12/24 00:55:40;;;;;;;;;;;;;;;;;;1007899;29;1206;-25
2021/12/24 00:56:13;;;;;;;;;;;;;;;;;;1011008;29;789;-25
2021/12/24 00:56:43;;;;;;;;;;;;;;;;;;1011121;29;793;-25
2021/12/24 00:57:14;;;;;;;;;;;;;;;;;;1011441;29;1219;-24
2021/12/24 00:57:46;;;;;;;;;;;;;;;;;;1015096;29;793;-25
2021/12/24 00:58:16;;;;;;;;;;;;;;;;;;1010970;29;1223;-25
2021/12/24 00:58:47;;;;;;;;;;;;;;;;;;1011250;29;935;-25
2021/12/24 00:59:17;;;;;;;;;;;;;;;;;;1010994;29;848;-25
2021/12/24 00:59:48;;;;;;;;;;;;;;;;;;1011295;29;915;-25
2021/12/24 01:00:29;;;;;;;;;;;;;;;;;;1015400;29;859;-25
2021/12/24 01:00:59;;;;;;;;;;;;;;;;;;1015443;29;939;-25
2021/12/24 01:01:30;;;;;;;;;;;;;;;;;;1015328;29;1919;-25
2021/12/24 01:02:03;;;;;;;;;;;;;;;;;;1011786;29;911;-25
2021/12/24 01:02:34;;;;;;;;;;;;;;;;;;1011720;29;822;-25
2021/12/24 01:03:05;;;;;;;;;;;;;;;;;;1011980;29;872;-25
2021/12/24 01:03:37;;;;;;;;;;;;;;;;;;1012271;29;1157;-25
2021/12/24 01:04:07;;;;;;;;;;;;;;;;;;1011865;29;1315;-25
2021/12/24 01:04:38;;;;;;;;;;;;;;;;;;1007768;29;1300;-25
2021/12/24 01:05:09;;;;;;;;;;;;;;;;;;1008064;29;883;-25
2021/12/24 01:05:41;;;;;;;;;;;;;;;;;;1004340;29;1601;-25
2021/12/24 01:06:11;;;;;;;;;;;;;;;;;;1004300;29;880;-25
2021/12/24 01:06:43;;;;;;;;;;;;;;;;;;1004070;29;1624;-25
2021/12/24 01:07:14;;;;;;;;;;;;;;;;;;1000508;29;836;-25
2021/12/24 01:07:45;;;;;;;;;;;;;;;;;;1004464;29;892;-25
2021/12/24 01:08:15;;;;;;;;;;;;;;;;;;1008223;29;820;-25
2021/12/24 01:08:45;;;;;;;;;;;;;;;;;;1011887;29;930;-25
2021/12/24 01:09:16;;;;;;;;;;;;;;;;;;1016059;29;938;-25
2021/12/24 01:09:46;;;;;;;;;;;;;;;;;;1016127;29;1454;-25
2021/12/24 01:10:20;;;;;;;;;;;;;;;;;;1011669;29;856;-25
2021/12/24 01:10:56;;;;;;;;;;;;;;;;;;1011855;29;946;-25
2021/12/24 01:11:27;;;;;;;;;;;;;;;;;;1011723;29;898;-25
2021/12/24 01:11:57;;;;;;;;;;;;;;;;;;1009192;29;1199;-25
2021/12/24 01:12:28;;;;;;;;;;;;;;;;;;1007964;29;1129;-25
2021/12/24 01:12:58;;;;;;;;;;;;;;;;;;1003804;29;1148;-25
2021/12/24 01:13:29;;;;;;;;;;;;;;;;;;1004145;29;836;-24
2021/12/24 01:14:00;;;;;;;;;;;;;;;;;;1008108;29;859;-25
2021/12/24 01:14:31;;;;;;;;;;;;;;;;;;1012008;29;850;-25
2021/12/24 01:15:02;;;;;;;;;;;;;;;;;;1016132;29;915;-25
2021/12/24 01:15:36;;;;;;;;;;;;;;;;;;1011701;29;1358;-25
2021/12/24 01:16:25;;;;;;;;;;;;;;;;;;1011880;29;946;-25
2021/12/24 01:17:49;;;;;;;;;;;;;;;;;;1011741;29;789;-25
2021/12/24 01:17:59;;;;;;;;;;;;;;;;;;999288;29;1139;-25
2021/12/24 01:18:40;;;;;;;;;;;;;;;;;;1011741;29;1245;-25
2021/12/24 01:19:17;;;;;;;;;;;;;;;;;;1011755;29;931;-25
2021/12/24 01:19:50;;;;;;;;;;;;;;;;;;1011934;29;812;-25
2021/12/24 01:20:43;;;;;;;;;;;;;;;;;;1014358;29;1455;-25
2021/12/24 01:21:29;;;;;;;;;;;;;;;;;;1015556;29;1907;-25
2021/12/24 01:22:36;;;;;;;;;;;;;;;;;;1011669;29;1349;-25
2021/12/24 01:23:25;;;;;;;;;;;;;;;;;;1011651;29;1369;-25
2021/12/24 01:24:20;;;;;;;;;;;;;;;;;;1015882;29;884;-25
2021/12/24 01:25:02;;;;;;;;;;;;;;;;;;1015992;29;820;-25
2021/12/24 01:25:38;;;;;;;;;;;;;;;;;;1015941;29;864;-24
2021/12/24 01:26:13;;;;;;;;;;;;;;;;;;1016012;29;951;-25
2021/12/24 01:29:52;;;;;;;;;;;;;;;;;;1010237;29;927;-25
2021/12/24 01:38:38;;;;;;;;;;;;;;;;;;1004922;29;1390;-25
2021/12/24 01:39:53;;;;;;;;;;;;;;;;;;1011732;29;820;-25
2021/12/24 01:43:06;;;;;;;;;;;;;;;;;;1011702;29;1109;-25
2021/12/24 01:43:36;;;;;;;;;;;;;;;;;;1011612;29;829;-25
2021/12/24 01:44:07;;;;;;;;;;;;;;;;;;1007936;29;1828;-25
2021/12/24 01:44:39;;;;;;;;;;;;;;;;;;1004170;29;1051;-25
2021/12/24 01:45:15;;;;;;;;;;;;;;;;;;1003975;29;1218;-25
2021/12/24 01:45:47;;;;;;;;;;;;;;;;;;1004855;29;1144;-25
2021/12/24 01:46:17;;;;;;;;;;;;;;;;;;1003929;29;963;-25
2021/12/24 01:46:47;;;;;;;;;;;;;;;;;;1004560;29;1220;-25
2021/12/24 01:47:18;;;;;;;;;;;;;;;;;;1007924;29;947;-25
2021/12/24 01:47:50;;;;;;;;;;;;;;;;;;1007656;29;1318;-24
2021/12/24 01:48:22;;;;;;;;;;;;;;;;;;1004218;29;1233;-25
2021/12/24 01:48:52;;;;;;;;;;;;;;;;;;1007757;29;773;-25
2021/12/24 01:49:23;;;;;;;;;;;;;;;;;;1004316;29;1327;-25
2021/12/24 01:49:53;;;;;;;;;;;;;;;;;;1008034;29;843;-25
2021/12/24 01:50:27;;;;;;;;;;;;;;;;;;1007756;29;1376;-25
2021/12/24 01:50:58;;;;;;;;;;;;;;;;;;1008277;29;1274;-25
2021/12/24 01:51:38;;;;;;;;;;;;;;;;;;1007633;29;1443;-25
2021/12/24 01:52:08;;;;;;;;;;;;;;;;;;1003968;29;1175;-25
2021/12/24 01:52:41;;;;;;;;;;;;;;;;;;1003862;29;1190;-25
2021/12/24 01:53:14;;;;;;;;;;;;;;;;;;1004397;29;963;-25
2021/12/24 01:53:46;;;;;;;;;;;;;;;;;;1004757;29;1346;-25
2021/12/24 01:54:17;;;;;;;;;;;;;;;;;;1008439;29;808;-25
2021/12/24 01:54:47;;;;;;;;;;;;;;;;;;1011680;29;781;-25
2021/12/24 01:55:18;;;;;;;;;;;;;;;;;;1011593;29;1321;-25
2021/12/24 01:55:50;;;;;;;;;;;;;;;;;;1011599;29;1168;-25
2021/12/24 01:56:20;;;;;;;;;;;;;;;;;;1007773;29;1266;-25
2021/12/24 01:56:51;;;;;;;;;;;;;;;;;;1003807;29;1452;-25
2021/12/24 01:57:21;;;;;;;;;;;;;;;;;;1004008;29;1319;-25
2021/12/24 01:57:52;;;;;;;;;;;;;;;;;;1003812;29;1335;-25
2021/12/24 01:58:23;;;;;;;;;;;;;;;;;;1004051;29;1407;-25
2021/12/24 01:58:54;;;;;;;;;;;;;;;;;;1004132;29;1184;-25
2021/12/24 01:59:24;;;;;;;;;;;;;;;;;;1007937;29;1131;-25
2021/12/24 01:59:55;;;;;;;;;;;;;;;;;;1011343;29;1151;-25
2021/12/24 02:00:27;;;;;;;;;;;;;;;;;;1007771;29;817;-25
2021/12/24 02:00:58;;;;;;;;;;;;;;;;;;1003788;29;1420;-25
2021/12/24 02:01:28;;;;;;;;;;;;;;;;;;1004139;29;1990;-25
2021/12/24 02:01:58;;;;;;;;;;;;;;;;;;1008033;29;836;-25
2021/12/24 02:02:29;;;;;;;;;;;;;;;;;;1011729;29;797;-25
2021/12/24 02:02:59;;;;;;;;;;;;;;;;;;1011582;29;899;-24
2021/12/24 02:03:30;;;;;;;;;;;;;;;;;;1011447;29;1421;-25
2021/12/24 02:04:00;;;;;;;;;;;;;;;;;;1011531;29;793;-25
2021/12/24 02:04:31;;;;;;;;;;;;;;;;;;1011615;29;793;-25
2021/12/24 02:05:01;;;;;;;;;;;;;;;;;;1011557;29;940;-25
2021/12/24 02:05:31;;;;;;;;;;;;;;;;;;1011658;29;1335;-25
2021/12/24 02:06:02;;;;;;;;;;;;;;;;;;1011360;29;1283;-25
2021/12/24 02:06:33;;;;;;;;;;;;;;;;;;1011686;29;2117;-25
2021/12/24 02:07:04;;;;;;;;;;;;;;;;;;1007406;29;1266;-25
2021/12/24 02:07:34;;;;;;;;;;;;;;;;;;1004101;29;971;-25
2021/12/24 02:08:05;;;;;;;;;;;;;;;;;;1011689;29;1451;-25
2021/12/24 02:08:35;;;;;;;;;;;;;;;;;;1015532;29;793;-26
2021/12/24 02:09:06;;;;;;;;;;;;;;;;;;1015504;29;986;-25
2021/12/24 02:09:36;;;;;;;;;;;;;;;;;;1011572;29;903;-25
2021/12/24 02:10:08;;;;;;;;;;;;;;;;;;1011519;29;873;-25
2021/12/24 02:10:39;;;;;;;;;;;;;;;;;;1007793;29;1206;-25
2021/12/24 02:11:10;;;;;;;;;;;;;;;;;;1007769;29;1278;-25
2021/12/24 02:11:41;;;;;;;;;;;;;;;;;;1007846;29;1135;-25
2021/12/24 02:12:11;;;;;;;;;;;;;;;;;;1007857;29;1227;-25
2021/12/24 02:12:43;;;;;;;;;;;;;;;;;;1007253;29;1317;-25
2021/12/24 02:13:14;;;;;;;;;;;;;;;;;;1007184;29;1195;-25
2021/12/24 02:13:49;;;;;;;;;;;;;;;;;;1004469;29;1093;-25
2021/12/24 02:14:22;;;;;;;;;;;;;;;;;;1003949;29;1306;-25
2021/12/24 02:14:57;;;;;;;;;;;;;;;;;;1004942;29;982;-25
2021/12/24 02:15:59;;;;;;;;;;;;;;;;;;1004784;29;1156;-25
2021/12/24 02:17:43;;;;;;;;;;;;;;;;;;1007745;29;1307;-25
2021/12/24 02:28:51;;;;;;;;;;;;;;;;;;1011453;29;1191;-25
2021/12/24 02:29:21;;;;;;;;;;;;;;;;;;1007582;29;1238;-25
2021/12/24 02:29:51;;;;;;;;;;;;;;;;;;1003794;29;967;-25
2021/12/24 02:30:22;;;;;;;;;;;;;;;;;;1003865;29;868;-25
2021/12/24 02:30:53;;;;;;;;;;;;;;;;;;1007524;29;1186;-25
2021/12/24 02:31:25;;;;;;;;;;;;;;;;;;1007644;29;1006;-25
2021/12/24 02:31:56;;;;;;;;;;;;;;;;;;1011518;29;1266;-25
2021/12/24 02:32:26;;;;;;;;;;;;;;;;;;1007522;29;1283;-25
2021/12/24 02:32:56;;;;;;;;;;;;;;;;;;1007824;29;887;-25
2021/12/24 02:33:27;;;;;;;;;;;;;;;;;;1007576;29;2200;-25
2021/12/24 02:33:57;;;;;;;;;;;;;;;;;;1007478;29;845;-25
2021/12/24 02:34:28;;;;;;;;;;;;;;;;;;1007639;29;1452;-25
2021/12/24 02:34:59;;;;;;;;;;;;;;;;;;1007732;29;1155;-25
2021/12/24 02:35:29;;;;;;;;;;;;;;;;;;1011612;29;776;-25
2021/12/24 02:35:59;;;;;;;;;;;;;;;;;;1011481;29;1733;-25
2021/12/24 02:36:30;;;;;;;;;;;;;;;;;;1007489;29;837;-25
2021/12/24 02:37:01;;;;;;;;;;;;;;;;;;1007407;29;1153;-25
2021/12/24 02:37:31;;;;;;;;;;;;;;;;;;1003826;29;828;-25
2021/12/24 02:38:03;;;;;;;;;;;;;;;;;;1003813;29;947;-25
2021/12/24 02:38:34;;;;;;;;;;;;;;;;;;1007871;29;1208;-25
2021/12/24 02:39:04;;;;;;;;;;;;;;;;;;1011497;29;944;-25
2021/12/24 02:39:35;;;;;;;;;;;;;;;;;;1015811;29;835;-25
2021/12/24 02:40:06;;;;;;;;;;;;;;;;;;1015763;29;812;-25
2021/12/24 02:40:37;;;;;;;;;;;;;;;;;;1015677;29;974;-26
2021/12/24 02:41:09;;;;;;;;;;;;;;;;;;1015708;29;772;-25
2021/12/24 02:41:39;;;;;;;;;;;;;;;;;;1015623;29;1978;-25
2021/12/24 02:42:17;;;;;;;;;;;;;;;;;;1011365;29;1188;-25
2021/12/24 02:42:50;;;;;;;;;;;;;;;;;;1011612;29;854;-25
2021/12/24 02:43:22;;;;;;;;;;;;;;;;;;1011230;29;999;-25
2021/12/24 02:43:53;;;;;;;;;;;;;;;;;;1013467;29;816;-25
2021/12/24 02:44:24;;;;;;;;;;;;;;;;;;1011166;29;1503;-25
2021/12/24 02:44:55;;;;;;;;;;;;;;;;;;1011645;29;840;-25
2021/12/24 02:45:27;;;;;;;;;;;;;;;;;;1011269;29;995;-25
2021/12/24 02:46:06;;;;;;;;;;;;;;;;;;1011703;29;943;-25
2021/12/24 02:53:56;;;;;;;;;;;;;;;;;;1007440;29;1219;-25
2021/12/24 02:54:05;;;;;;;;;;;;;;;;;;1015619;29;871;-25
2021/12/24 02:54:35;;;;;;;;;;;;;;;;;;1011415;29;1310;-25
2021/12/24 02:55:06;;;;;;;;;;;;;;;;;;1007338;29;841;-25
2021/12/24 02:55:36;;;;;;;;;;;;;;;;;;1003804;29;1180;-25
2021/12/24 02:56:10;;;;;;;;;;;;;;;;;;999991;29;1964;-24
2021/12/24 02:56:47;;;;;;;;;;;;;;;;;;1008051;29;1163;-25
2021/12/24 02:57:21;;;;;;;;;;;;;;;;;;1012866;29;1005;-25
2021/12/24 02:57:51;;;;;;;;;;;;;;;;;;1011370;29;1696;-25
2021/12/24 02:58:22;;;;;;;;;;;;;;;;;;1011435;29;922;-25
2021/12/24 02:58:52;;;;;;;;;;;;;;;;;;1011401;29;1223;-25
2021/12/24 02:59:26;;;;;;;;;;;;;;;;;;1007458;29;1308;-25
2021/12/24 03:00:00;;;;;;;;;;;;;;;;;;1003802;29;1278;-25
2021/12/24 03:00:30;;;;;;;;;;;;;;;;;;1000557;29;1552;-25
2021/12/24 03:01:01;;;;;;;;;;;;;;;;;;1004675;29;923;-25
2021/12/24 03:01:35;;;;;;;;;;;;;;;;;;1003906;29;1915;-25
2021/12/24 03:02:06;;;;;;;;;;;;;;;;;;1004089;29;1297;-25
2021/12/24 03:02:38;;;;;;;;;;;;;;;;;;1007438;29;1152;-25
2021/12/24 03:03:08;;;;;;;;;;;;;;;;;;1008222;29;923;-25
2021/12/24 03:03:39;;;;;;;;;;;;;;;;;;1011525;29;1359;-24
2021/12/24 03:04:10;;;;;;;;;;;;;;;;;;1007702;29;1322;-25
2021/12/24 03:04:41;;;;;;;;;;;;;;;;;;1011092;29;904;-25
2021/12/24 03:05:13;;;;;;;;;;;;;;;;;;1011017;29;1224;-25
2021/12/24 03:05:44;;;;;;;;;;;;;;;;;;1003882;29;1318;-25
2021/12/24 03:06:15;;;;;;;;;;;;;;;;;;1007593;29;1022;-25
2021/12/24 03:06:47;;;;;;;;;;;;;;;;;;1003875;29;1172;-26
2021/12/24 03:07:17;;;;;;;;;;;;;;;;;;1007695;29;1364;-25
2021/12/24 03:07:48;;;;;;;;;;;;;;;;;;1011441;29;931;-25
2021/12/24 03:08:18;;;;;;;;;;;;;;;;;;1007794;29;1065;-25
2021/12/24 03:08:49;;;;;;;;;;;;;;;;;;1011243;29;1278;-25
2021/12/24 03:09:20;;;;;;;;;;;;;;;;;;1011441;29;990;-25
2021/12/24 03:09:51;;;;;;;;;;;;;;;;;;1011382;29;801;-25
2021/12/24 03:10:21;;;;;;;;;;;;;;;;;;1011511;29;808;-25
2021/12/24 03:10:54;;;;;;;;;;;;;;;;;;1011269;29;1420;-25
2021/12/24 03:11:25;;;;;;;;;;;;;;;;;;1007393;29;1184;-25
2021/12/24 03:11:59;;;;;;;;;;;;;;;;;;1007670;29;813;-25
2021/12/24 03:12:30;;;;;;;;;;;;;;;;;;1004188;29;1153;-25
2021/12/24 03:13:01;;;;;;;;;;;;;;;;;;1007924;29;852;-25
2021/12/24 03:13:34;;;;;;;;;;;;;;;;;;1007430;29;1184;-25
2021/12/24 03:14:05;;;;;;;;;;;;;;;;;;1007913;29;757;-25
2021/12/24 03:14:36;;;;;;;;;;;;;;;;;;1011496;29;776;-25
2021/12/24 03:15:07;;;;;;;;;;;;;;;;;;1007728;29;875;-25
2021/12/24 03:15:39;;;;;;;;;;;;;;;;;;1007500;29;1250;-25
2021/12/24 03:16:09;;;;;;;;;;;;;;;;;;1007510;29;919;-25
2021/12/24 03:16:40;;;;;;;;;;;;;;;;;;1007871;29;931;-25
2021/12/24 03:17:16;;;;;;;;;;;;;;;;;;1011288;29;1348;-25
2021/12/24 03:17:52;;;;;;;;;;;;;;;;;;1007313;29;1239;-25
2021/12/24 03:18:26;;;;;;;;;;;;;;;;;;1003550;29;1180;-25
2021/12/24 03:18:58;;;;;;;;;;;;;;;;;;1005604;29;1464;-25
2021/12/24 03:19:32;;;;;;;;;;;;;;;;;;1008894;29;1304;-25
2021/12/24 03:20:08;;;;;;;;;;;;;;;;;;1008604;29;1325;-25
2021/12/24 03:20:38;;;;;;;;;;;;;;;;;;1006176;29;1303;-24
2021/12/24 03:21:24;;;;;;;;;;;;;;;;;;1000869;29;1247;-25
2021/12/24 03:22:06;;;;;;;;;;;;;;;;;;1006172;29;1152;-25
2021/12/24 03:23:34;;;;;;;;;;;;;;;;;;1007247;29;1215;-25
2021/12/24 03:24:35;;;;;;;;;;;;;;;;;;1010707;29;860;-25
2021/12/24 03:25:06;;;;;;;;;;;;;;;;;;1014073;29;927;-25
2021/12/24 03:25:37;;;;;;;;;;;;;;;;;;1015513;29;935;-36
2021/12/24 03:26:10;;;;;;;;;;;;;;;;;;1011257;29;1172;-25
2021/12/24 03:26:45;;;;;;;;;;;;;;;;;;1007419;29;1286;-25
2021/12/24 03:27:15;;;;;;;;;;;;;;;;;;1003443;29;1231;-25
2021/12/24 03:27:46;;;;;;;;;;;;;;;;;;1004319;29;1136;-25
2021/12/24 03:28:16;;;;;;;;;;;;;;;;;;1007344;29;1281;-25
2021/12/24 03:28:47;;;;;;;;;;;;;;;;;;1007551;29;789;-25
2021/12/24 03:29:18;;;;;;;;;;;;;;;;;;1007573;29;939;-25
2021/12/24 03:29:50;;;;;;;;;;;;;;;;;;1007533;29;1279;-25
2021/12/24 03:30:21;;;;;;;;;;;;;;;;;;1007365;29;1218;-25
2021/12/24 03:30:52;;;;;;;;;;;;;;;;;;1003414;29;1367;-25
2021/12/24 03:31:22;;;;;;;;;;;;;;;;;;999832;29;1274;-25
2021/12/24 03:31:53;;;;;;;;;;;;;;;;;;1003775;29;903;-25
2021/12/24 03:32:24;;;;;;;;;;;;;;;;;;1003449;29;1395;-25
2021/12/24 03:32:54;;;;;;;;;;;;;;;;;;1007637;29;1089;-25
2021/12/24 03:33:25;;;;;;;;;;;;;;;;;;1007319;29;879;-24
2021/12/24 03:33:55;;;;;;;;;;;;;;;;;;1003622;29;682;-25
2021/12/24 03:34:26;;;;;;;;;;;;;;;;;;1003535;29;1579;-24
2021/12/24 03:34:57;;;;;;;;;;;;;;;;;;1003817;29;1251;-25
2021/12/24 03:35:28;;;;;;;;;;;;;;;;;;1007561;29;1176;-25
2021/12/24 03:35:59;;;;;;;;;;;;;;;;;;1007409;29;1185;-25
2021/12/24 03:36:30;;;;;;;;;;;;;;;;;;1003777;29;1286;-24
2021/12/24 03:37:03;;;;;;;;;;;;;;;;;;1007428;29;1463;-25
2021/12/24 03:37:36;;;;;;;;;;;;;;;;;;1003467;29;1235;-25
2021/12/24 03:38:08;;;;;;;;;;;;;;;;;;1004315;29;1235;-25
2021/12/24 03:38:38;;;;;;;;;;;;;;;;;;1003559;29;1298;-25
2021/12/24 03:39:11;;;;;;;;;;;;;;;;;;1003895;29;1396;-25
2021/12/24 03:39:41;;;;;;;;;;;;;;;;;;1007704;29;758;-25
2021/12/24 03:40:11;;;;;;;;;;;;;;;;;;1011301;29;876;-25
2021/12/24 03:40:42;;;;;;;;;;;;;;;;;;1007288;29;2235;-25
2021/12/24 03:41:12;;;;;;;;;;;;;;;;;;1003547;29;1911;-25
2021/12/24 03:41:43;;;;;;;;;;;;;;;;;;1003385;29;1104;-25
2021/12/24 03:42:13;;;;;;;;;;;;;;;;;;1003545;29;1140;-25
2021/12/24 03:42:44;;;;;;;;;;;;;;;;;;1003447;29;1172;-24
2021/12/24 03:43:15;;;;;;;;;;;;;;;;;;1003610;29;934;-25
2021/12/24 03:43:46;;;;;;;;;;;;;;;;;;1003820;29;924;-25
2021/12/24 03:44:18;;;;;;;;;;;;;;;;;;1007458;29;1131;-24
2021/12/24 03:44:59;;;;;;;;;;;;;;;;;;1011357;29;998;-25
2021/12/24 03:45:37;;;;;;;;;;;;;;;;;;1011029;29;848;-25
2021/12/24 03:46:13;;;;;;;;;;;;;;;;;;1007429;29;1108;-25
2021/12/24 03:46:58;;;;;;;;;;;;;;;;;;1007172;29;1213;-26
2021/12/24 03:47:34;;;;;;;;;;;;;;;;;;999929;29;1300;-24
2021/12/24 03:48:16;;;;;;;;;;;;;;;;;;1006872;29;1205;-25
2021/12/24 03:48:53;;;;;;;;;;;;;;;;;;1007339;29;793;-25
2021/12/24 03:49:35;;;;;;;;;;;;;;;;;;1010341;29;792;-25
2021/12/24 03:50:11;;;;;;;;;;;;;;;;;;1007371;29;1494;-25
2021/12/24 03:50:54;;;;;;;;;;;;;;;;;;1003258;29;1519;-25
2021/12/24 03:52:15;;;;;;;;;;;;;;;;;;1005975;29;1594;-25
2021/12/24 03:54:55;;;;;;;;;;;;;;;;;;1011212;29;840;-25
2021/12/24 03:55:17;;;;;;;;;;;;;;;;;;1004486;29;1149;-25
2021/12/24 03:55:47;;;;;;;;;;;;;;;;;;1007253;29;1149;-25
2021/12/24 03:56:18;;;;;;;;;;;;;;;;;;1003541;29;1319;-25
2021/12/24 03:56:49;;;;;;;;;;;;;;;;;;1003514;29;1534;-25
2021/12/24 03:57:40;;;;;;;;;;;;;;;;;;1007279;29;1050;-24
2021/12/24 03:58:30;;;;;;;;;;;;;;;;;;1008791;29;635;-25
2021/12/24 03:59:19;;;;;;;;;;;;;;;;;;1011737;29;655;-25
2021/12/24 04:00:08;;;;;;;;;;;;;;;;;;1011762;29;647;-25
2021/12/24 04:00:48;;;;;;;;;;;;;;;;;;1011599;29;760;-25
2021/12/24 04:01:25;;;;;;;;;;;;;;;;;;1011536;29;1974;-26
2021/12/24 04:02:24;;;;;;;;;;;;;;;;;;1011402;29;982;-25
2021/12/24 04:03:33;;;;;;;;;;;;;;;;;;1011394;29;1058;-25
2021/12/24 04:04:22;;;;;;;;;;;;;;;;;;1011790;29;647;-25
2021/12/24 04:05:13;;;;;;;;;;;;;;;;;;991903;29;1149;-25
2021/12/24 04:06:04;;;;;;;;;;;;;;;;;;990931;29;1154;-24
2021/12/24 04:06:53;;;;;;;;;;;;;;;;;;1001564;29;1038;-25
2021/12/24 04:07:56;;;;;;;;;;;;;;;;;;999487;29;1064;-25
2021/12/24 04:08:39;;;;;;;;;;;;;;;;;;999401;29;1404;-25
2021/12/24 04:09:18;;;;;;;;;;;;;;;;;;1007434;29;1364;-25
2021/12/24 04:10:08;;;;;;;;;;;;;;;;;;1003370;29;1386;-25
2021/12/24 04:10:57;;;;;;;;;;;;;;;;;;1004621;29;671;-24
2021/12/24 04:11:38;;;;;;;;;;;;;;;;;;1007852;29;812;-25
2021/12/24 04:12:09;;;;;;;;;;;;;;;;;;1007240;29;1191;-25
2021/12/24 04:12:39;;;;;;;;;;;;;;;;;;1003481;29;1231;-25
2021/12/24 04:13:11;;;;;;;;;;;;;;;;;;1003614;29;805;-25
2021/12/24 04:13:42;;;;;;;;;;;;;;;;;;1003510;29;952;-25
2021/12/24 04:14:12;;;;;;;;;;;;;;;;;;1007621;29;1129;-24
2021/12/24 04:14:42;;;;;;;;;;;;;;;;;;1007290;29;1262;-25
2021/12/24 04:15:13;;;;;;;;;;;;;;;;;;1007388;29;766;-25
2021/12/24 04:15:44;;;;;;;;;;;;;;;;;;1007071;29;1307;-26
2021/12/24 04:16:15;;;;;;;;;;;;;;;;;;1007446;29;1271;-25
2021/12/24 04:17:02;;;;;;;;;;;;;;;;;;1007242;29;1208;-25
2021/12/24 04:17:36;;;;;;;;;;;;;;;;;;1003477;29;1319;-25
2021/12/24 04:18:14;;;;;;;;;;;;;;;;;;1003478;29;1139;-25
2021/12/24 04:19:35;;;;;;;;;;;;;;;;;;1009201;29;1260;-25
2021/12/24 04:25:04;;;;;;;;;;;;;;;;;;1008007;29;1160;-24
2021/12/24 04:25:35;;;;;;;;;;;;;;;;;;1007294;29;1310;-24
2021/12/24 04:26:05;;;;;;;;;;;;;;;;;;1003409;29;916;-25
2021/12/24 04:26:36;;;;;;;;;;;;;;;;;;999784;29;1202;-25
2021/12/24 04:27:06;;;;;;;;;;;;;;;;;;999426;29;1187;-25
2021/12/24 04:27:36;;;;;;;;;;;;;;;;;;999806;29;1145;-25
2021/12/24 04:28:07;;;;;;;;;;;;;;;;;;999530;29;2060;-25
2021/12/24 04:28:38;;;;;;;;;;;;;;;;;;1003615;29;1156;-24
2021/12/24 04:29:08;;;;;;;;;;;;;;;;;;1007437;29;805;-24
2021/12/24 04:29:40;;;;;;;;;;;;;;;;;;1007364;29;1286;-25
2021/12/24 04:30:14;;;;;;;;;;;;;;;;;;1007352;29;1140;-25
2021/12/24 04:30:53;;;;;;;;;;;;;;;;;;1003164;29;1475;-25
2021/12/24 04:31:44;;;;;;;;;;;;;;;;;;1005034;29;1270;-25
2021/12/24 04:33:08;;;;;;;;;;;;;;;;;;1010896;29;1062;-25
2021/12/24 04:33:45;;;;;;;;;;;;;;;;;;1011265;29;1287;-25
2021/12/24 04:34:16;;;;;;;;;;;;;;;;;;1011185;29;879;-25
2021/12/24 04:34:51;;;;;;;;;;;;;;;;;;1007189;29;924;-25
2021/12/24 04:35:44;;;;;;;;;;;;;;;;;;1006121;29;1236;-25
2021/12/24 04:51:40;;;;;;;;;;;;;;;;;;1008021;29;1285;-25
2021/12/24 04:52:41;;;;;;;;;;;;;;;;;;1004115;29;1330;-25
2021/12/24 05:01:11;;;;;;;;;;;;;;;;;;1004042;29;1746;-25
2021/12/24 05:03:04;;;;;;;;;;;;;;;;;;1007853;29;1255;-24
2021/12/24 05:03:38;;;;;;;;;;;;;;;;;;1007920;29;1177;-25
2021/12/24 05:04:10;;;;;;;;;;;;;;;;;;1007851;29;1354;-25
2021/12/24 05:04:52;;;;;;;;;;;;;;;;;;1003943;29;1292;-25
2021/12/24 05:06:52;;;;;;;;;;;;;;;;;;1007920;29;1155;-25
2021/12/24 05:07:52;;;;;;;;;;;;;;;;;;1007779;29;823;-25
2021/12/24 05:08:22;;;;;;;;;;;;;;;;;;1008147;29;1364;-25
2021/12/24 05:08:56;;;;;;;;;;;;;;;;;;1007908;29;1340;-25
2021/12/24 05:09:31;;;;;;;;;;;;;;;;;;1004117;29;1255;-25
2021/12/24 05:10:02;;;;;;;;;;;;;;;;;;1000104;29;1286;-24
2021/12/24 05:10:37;;;;;;;;;;;;;;;;;;1001539;29;1185;-25
2021/12/24 05:11:12;;;;;;;;;;;;;;;;;;1003896;29;1160;-25
2021/12/24 05:11:42;;;;;;;;;;;;;;;;;;1005385;29;1191;-25
2021/12/24 05:12:13;;;;;;;;;;;;;;;;;;1007850;29;1259;-25
2021/12/24 05:12:43;;;;;;;;;;;;;;;;;;1007834;29;773;-24
2021/12/24 05:13:15;;;;;;;;;;;;;;;;;;1007992;29;1277;-25
2021/12/24 05:14:04;;;;;;;;;;;;;;;;;;1007698;29;1334;-25
2021/12/24 05:14:59;;;;;;;;;;;;;;;;;;1007945;29;1458;-25
2021/12/24 05:15:53;;;;;;;;;;;;;;;;;;1009834;29;698;-25
2021/12/24 05:16:50;;;;;;;;;;;;;;;;;;1011755;29;1486;-25
2021/12/24 05:21:42;;;;;;;;;;;;;;;;;;1007855;29;1907;-25
2021/12/24 05:22:13;;;;;;;;;;;;;;;;;;1003863;29;1168;-25
2021/12/24 05:22:45;;;;;;;;;;;;;;;;;;1004095;29;1160;-25
2021/12/24 05:23:18;;;;;;;;;;;;;;;;;;1006030;29;2147;-25
2021/12/24 05:23:49;;;;;;;;;;;;;;;;;;1007959;29;1283;-25
2021/12/24 05:24:20;;;;;;;;;;;;;;;;;;1004396;29;1232;-25
2021/12/24 05:24:51;;;;;;;;;;;;;;;;;;1008120;29;1737;-25
2021/12/24 05:25:21;;;;;;;;;;;;;;;;;;1011692;29;893;-25
2021/12/24 05:25:52;;;;;;;;;;;;;;;;;;1008129;29;1231;-25
2021/12/24 05:26:22;;;;;;;;;;;;;;;;;;1007734;29;1196;-25
2021/12/24 05:26:55;;;;;;;;;;;;;;;;;;1008105;29;882;-25
2021/12/24 05:27:25;;;;;;;;;;;;;;;;;;1004102;29;967;-25
2021/12/24 05:27:58;;;;;;;;;;;;;;;;;;1007966;29;1183;-25
2021/12/24 05:28:28;;;;;;;;;;;;;;;;;;1007798;29;986;-25
2021/12/24 05:28:59;;;;;;;;;;;;;;;;;;1004474;29;1188;-25